createdAt,value
2022-10-11T00:00:44.137Z,98218.91
2022-10-11T00:03:11.082Z,98212.75
2022-10-11T00:05:37.803Z,98203.16
2022-10-11T00:08:05.915Z,98210.91
2022-10-11T00:10:34.209Z,98204.09
2022-10-11T00:13:01.396Z,98206.78
2022-10-11T00:15:28.232Z,98208.56
2022-10-11T00:17:54.899Z,98208.59
2022-10-11T00:20:21.625Z,98203.47
2022-10-11T00:22:50.773Z,98205.97
2022-10-11T00:25:20.518Z,98202.41
2022-10-11T00:27:49.266Z,98194.47
2022-10-11T00:30:15.939Z,98200.66
2022-10-11T00:32:44.788Z,98191.94
2022-10-11T00:35:13.891Z,98197.25
2022-10-11T00:37:40.554Z,98200.66
2022-10-11T00:40:10.240Z,98197.06
2022-10-11T00:42:37.108Z,98195.47
2022-10-11T00:45:31.646Z,98193.56
2022-10-11T00:48:17.625Z,98196.22
2022-10-11T00:50:53.686Z,98195.41
2022-10-11T00:53:25.556Z,98188.56
2022-10-11T00:55:59.839Z,98187.59
2022-10-11T00:58:26.882Z,98195.41
2022-10-11T01:00:54.399Z,98181.50
2022-10-11T01:03:25.278Z,98183.31
2022-10-11T01:05:55.748Z,98190.28
2022-10-11T01:08:23.372Z,98182.56
2022-10-11T01:10:52.255Z,98186.13
2022-10-11T01:13:40.761Z,98182.56
2022-10-11T01:16:32.211Z,98187.03
2022-10-11T01:19:10.733Z,98175.56
2022-10-11T01:21:55.648Z,98170.41
2022-10-11T01:24:44.186Z,98174.78
2022-10-11T01:27:29.447Z,98167.88
2022-10-11T01:30:33.490Z,98173.31
2022-10-11T01:33:07.502Z,98170.72
2022-10-11T01:36:01.952Z,98169.00
2022-10-11T01:38:52.740Z,98163.81
2022-10-11T01:41:28.973Z,98164.69
2022-10-11T01:44:01.519Z,98165.72
2022-10-11T01:46:31.782Z,98169.19
2022-10-11T01:49:00.219Z,98165.66
2022-10-11T01:51:34.604Z,98164.75
2022-10-11T01:54:10.904Z,98165.72
2022-10-11T01:56:59.358Z,98161.38
2022-10-11T01:59:52.093Z,98167.66
2022-10-11T02:02:39.186Z,98162.41
2022-10-11T02:05:11.421Z,98153.56
2022-10-11T02:08:08.520Z,98158.03
2022-10-11T02:10:44.734Z,98153.78
2022-10-11T02:13:26.552Z,98157.31
2022-10-11T02:15:55.979Z,98146.72
2022-10-11T02:18:27.648Z,98156.25
2022-10-11T02:21:00.996Z,98156.06
2022-10-11T02:23:36.622Z,98161.44
2022-10-11T02:26:06.880Z,98166.81
2022-10-11T02:28:37.290Z,98159.72
2022-10-11T02:31:06.764Z,98162.50
2022-10-11T02:33:53.555Z,98158.97
2022-10-11T02:36:26.672Z,98160.53
2022-10-11T02:38:59.162Z,98161.38
2022-10-11T02:41:32.938Z,98162.25
2022-10-11T02:44:06.717Z,98162.25
2022-10-11T02:46:37.042Z,98165.88
2022-10-11T02:49:05.028Z,98161.50
2022-10-11T02:51:32.546Z,98158.03
2022-10-11T02:54:02.124Z,98161.50
2022-10-11T02:56:28.841Z,98159.91
2022-10-11T02:58:55.453Z,98159.91
2022-10-11T03:01:22.256Z,98162.75
2022-10-11T03:03:48.972Z,98154.88
2022-10-11T03:06:15.812Z,98154.25
2022-10-11T03:08:47.779Z,98153.31
2022-10-11T03:11:16.951Z,98150.88
2022-10-11T03:13:44.206Z,98155.19
2022-10-11T03:16:14.698Z,98153.34
2022-10-11T03:18:41.581Z,98150.66
2022-10-11T03:21:08.249Z,98142.84
2022-10-11T03:23:34.953Z,98145.41
2022-10-11T03:26:02.096Z,98138.28
2022-10-11T03:28:31.990Z,98145.34
2022-10-11T03:31:00.370Z,98138.41
2022-10-11T03:33:29.246Z,98144.72
2022-10-11T03:35:58.911Z,98138.50
2022-10-11T03:38:25.639Z,98139.34
2022-10-11T03:40:52.262Z,98128.88
2022-10-11T03:43:18.859Z,98137.50
2022-10-11T03:45:46.624Z,98137.63
2022-10-11T03:48:14.243Z,98150.81
2022-10-11T03:50:40.913Z,98143.06
2022-10-11T03:53:08.019Z,98154.34
2022-10-11T03:55:37.521Z,98151.69
2022-10-11T03:58:07.085Z,98149.06
2022-10-11T04:00:34.811Z,98148.13
2022-10-11T04:03:03.900Z,98148.88
2022-10-11T04:05:30.883Z,98153.16
2022-10-11T04:07:57.721Z,98147.19
2022-10-11T04:10:24.581Z,98139.41
2022-10-11T04:12:51.160Z,98149.91
2022-10-11T04:15:18.018Z,98149.97
2022-10-11T04:17:46.284Z,98151.63
2022-10-11T04:20:15.937Z,98147.22
2022-10-11T04:22:42.579Z,98151.56
2022-10-11T04:25:09.804Z,98139.47
2022-10-11T04:27:36.467Z,98142.03
2022-10-11T04:30:04.955Z,98149.84
2022-10-11T04:32:31.608Z,98143.47
2022-10-11T04:34:58.360Z,98145.28
2022-10-11T04:37:25.135Z,98146.25
2022-10-11T04:39:51.783Z,98147.06
2022-10-11T04:42:21.074Z,98156.41
2022-10-11T04:44:47.801Z,98157.16
2022-10-11T04:47:14.492Z,98151.81
2022-10-11T04:49:42.911Z,98157.78
2022-10-11T04:52:09.738Z,98156.06
2022-10-11T04:54:36.697Z,98151.66
2022-10-11T04:57:06.455Z,98153.44
2022-10-11T04:59:37.449Z,98156.88
2022-10-11T05:02:04.149Z,98159.66
2022-10-11T05:04:30.876Z,98170.34
2022-10-11T05:06:57.479Z,98175.66
2022-10-11T05:09:24.263Z,98172.16
2022-10-11T05:11:50.897Z,98170.44
2022-10-11T05:14:17.521Z,98174.63
2022-10-11T05:16:47.010Z,98167.41
2022-10-11T05:19:17.610Z,98170.22
2022-10-11T05:21:47.008Z,98178.16
2022-10-11T05:24:18.209Z,98173.13
2022-10-11T05:26:45.102Z,98174.78
2022-10-11T05:29:11.723Z,98171.94
2022-10-11T05:31:43.013Z,98175.44
2022-10-11T05:34:09.768Z,98179.75
2022-10-11T05:36:36.512Z,98177.25
2022-10-11T05:39:03.209Z,98176.31
2022-10-11T05:41:29.909Z,98180.59
2022-10-11T05:43:56.516Z,98171.81
2022-10-11T05:46:23.204Z,98174.44
2022-10-11T05:48:49.806Z,98183.16
2022-10-11T05:51:18.753Z,98188.25
2022-10-11T05:53:45.646Z,98197.84
2022-10-11T05:56:24.872Z,98198.63
2022-10-11T05:58:52.594Z,98189.72
2022-10-11T06:01:27.240Z,98200.28
2022-10-11T06:03:57.206Z,98194.13
2022-10-11T06:06:24.147Z,98201.09
2022-10-11T06:08:50.929Z,98199.94
2022-10-11T06:11:25.319Z,98199.94
2022-10-11T06:13:56.137Z,98204.34
2022-10-11T06:16:22.815Z,98205.25
2022-10-11T06:18:52.760Z,98217.44
2022-10-11T06:21:19.532Z,98211.88
2022-10-11T06:23:50.233Z,98213.31
2022-10-11T06:26:18.031Z,98214.81
2022-10-11T06:28:45.451Z,98210.22
2022-10-11T06:31:13.008Z,98215.34
2022-10-11T06:33:47.368Z,98214.34
2022-10-11T06:36:14.836Z,98210.94
2022-10-11T06:38:44.959Z,98212.78
2022-10-11T06:41:22.089Z,98222.94
2022-10-11T06:43:51.803Z,98219.28
2022-10-11T06:46:20.475Z,98218.44
2022-10-11T06:48:48.377Z,98212.13
2022-10-11T06:51:17.223Z,98218.78
2022-10-11T06:53:44.423Z,98221.22
2022-10-11T06:56:13.134Z,98217.38
2022-10-11T06:58:40.151Z,98209.88
2022-10-11T07:01:10.338Z,98223.97
2022-10-11T07:03:37.550Z,98217.06
2022-10-11T07:06:10.014Z,98217.22
2022-10-11T07:08:40.571Z,98218.88
2022-10-11T07:11:09.794Z,98218.72
2022-10-11T07:13:37.713Z,98216.06
2022-10-11T07:16:07.087Z,98216.44
2022-10-11T07:18:34.072Z,98214.47
2022-10-11T07:21:08.656Z,98205.25
2022-10-11T07:23:35.551Z,98207.91
2022-10-11T07:26:02.869Z,98200.63
2022-10-11T07:28:30.776Z,98203.41
2022-10-11T07:30:58.672Z,98202.47
2022-10-11T07:33:25.398Z,98199.09
2022-10-11T07:35:56.672Z,98195.25
2022-10-11T07:38:23.327Z,98193.41
2022-10-11T07:40:49.994Z,98197.38
2022-10-11T07:43:16.606Z,98200.13
2022-10-11T07:45:45.626Z,98196.31
2022-10-11T07:48:13.478Z,98193.78
2022-10-11T07:50:40.096Z,98199.06
2022-10-11T07:53:06.795Z,98200.00
2022-10-11T07:55:40.338Z,98197.94
2022-10-11T07:58:11.156Z,98199.16
2022-10-11T08:00:38.888Z,98205.97
2022-10-11T08:03:06.494Z,98194.47
2022-10-11T08:05:34.482Z,98201.00
2022-10-11T08:08:01.117Z,98199.34
2022-10-11T08:10:27.851Z,98202.34
2022-10-11T08:12:54.545Z,98197.94
2022-10-11T08:15:21.430Z,98212.16
2022-10-11T08:17:48.139Z,98205.69
2022-10-11T08:20:14.854Z,98195.81
2022-10-11T08:22:41.535Z,98190.72
2022-10-11T08:25:08.502Z,98195.78
2022-10-11T08:27:35.132Z,98192.00
2022-10-11T08:30:01.830Z,98196.81
2022-10-11T08:32:29.654Z,98193.91
2022-10-11T08:34:56.463Z,98194.63
2022-10-11T08:37:23.075Z,98189.03
2022-10-11T08:39:53.016Z,98198.31
2022-10-11T08:42:41.021Z,98191.50
2022-10-11T08:45:27.145Z,98188.03
2022-10-11T08:48:04.041Z,98193.84
2022-10-11T08:50:31.635Z,98181.34
2022-10-11T08:53:09.009Z,98181.75
2022-10-11T08:55:44.164Z,98182.69
2022-10-11T08:58:19.415Z,98182.31
2022-10-11T09:00:48.610Z,98181.06
2022-10-11T09:03:34.554Z,98175.50
2022-10-11T09:06:06.349Z,98178.16
2022-10-11T09:08:39.329Z,98168.13
2022-10-11T09:11:30.764Z,98175.69
2022-10-11T09:14:12.551Z,98172.66
2022-10-11T09:17:10.481Z,98174.63
2022-10-11T09:19:46.167Z,98175.50
2022-10-11T09:22:46.843Z,98175.91
2022-10-11T09:25:37.843Z,98170.41
2022-10-11T09:28:46.498Z,98160.72
2022-10-11T09:31:14.542Z,98167.19
2022-10-11T09:33:47.566Z,98153.50
2022-10-11T09:36:20.304Z,98164.28
2022-10-11T09:38:54.688Z,98158.16
2022-10-11T09:41:36.907Z,98155.38
2022-10-11T09:44:06.901Z,98156.47
2022-10-11T09:46:57.007Z,98153.81
2022-10-11T09:49:34.330Z,98152.38
2022-10-11T09:52:03.171Z,98153.38
2022-10-11T09:54:48.290Z,98148.34
2022-10-11T09:57:25.624Z,98144.47
2022-10-11T10:00:06.279Z,98139.09
2022-10-11T10:02:52.012Z,98142.00
2022-10-11T10:05:24.372Z,98141.69
2022-10-11T10:08:06.295Z,98139.75
2022-10-11T10:10:50.655Z,98133.34
2022-10-11T10:13:32.740Z,98132.78
2022-10-11T10:16:07.132Z,98134.53
2022-10-11T10:18:48.165Z,98128.66
2022-10-11T10:21:15.689Z,98129.50
2022-10-11T10:23:42.447Z,98125.69
2022-10-11T10:26:22.665Z,98126.88
2022-10-11T10:29:14.387Z,98127.94
2022-10-11T10:34:42.496Z,98121.63
2022-10-11T10:37:38.835Z,98120.44
2022-10-11T10:40:18.472Z,98112.31
2022-10-11T10:42:45.418Z,98108.28
2022-10-11T10:45:20.926Z,98105.69
2022-10-11T10:48:07.318Z,98104.50
2022-10-11T10:50:49.669Z,98105.47
2022-10-11T10:53:24.918Z,98103.94
2022-10-11T10:55:54.887Z,98095.31
2022-10-11T10:58:24.587Z,98096.50
2022-10-11T11:00:53.691Z,98085.22
2022-10-11T11:03:20.854Z,98091.00
2022-10-11T11:05:57.651Z,98089.50
2022-10-11T11:08:27.454Z,98083.59
2022-10-11T11:11:02.314Z,98084.09
2022-10-11T11:13:29.108Z,98087.59
2022-10-11T11:15:58.698Z,98070.59
2022-10-11T11:18:29.661Z,98074.41
2022-10-11T11:20:59.266Z,98072.22
2022-10-11T11:23:27.282Z,98073.19
2022-10-11T11:26:12.623Z,98069.19
2022-10-11T11:28:48.523Z,98064.69
2022-10-11T11:31:21.540Z,98061.75
2022-10-11T11:34:03.541Z,98064.69
2022-10-11T11:36:42.373Z,98069.16
2022-10-11T11:39:14.776Z,98059.00
2022-10-11T11:41:45.173Z,98064.63
2022-10-11T11:44:23.792Z,98060.31
2022-10-11T11:46:57.195Z,98060.88
2022-10-11T11:49:32.212Z,98057.66
2022-10-11T11:51:59.645Z,98063.72
2022-10-11T11:54:47.941Z,98062.88
2022-10-11T11:57:25.393Z,98055.16
2022-10-11T11:59:52.184Z,98053.66
2022-10-11T12:02:25.012Z,98051.75
2022-10-11T12:04:52.376Z,98044.88
2022-10-11T12:07:20.862Z,98054.94
2022-10-11T12:09:55.406Z,98049.06
2022-10-11T12:12:38.645Z,98048.88
2022-10-11T12:15:08.317Z,98047.78
2022-10-11T12:17:57.025Z,98034.63
2022-10-11T12:20:23.596Z,98036.72
2022-10-11T12:22:53.902Z,98036.06
2022-10-11T12:25:22.338Z,98035.78
2022-10-11T12:27:53.175Z,98033.78
2022-10-11T12:30:38.945Z,98036.59
2022-10-11T12:33:13.407Z,98027.41
2022-10-11T12:35:47.715Z,98034.91
2022-10-11T12:38:21.071Z,98037.69
2022-10-11T12:40:48.920Z,98029.44
2022-10-11T12:43:15.896Z,98029.78
2022-10-11T12:46:08.176Z,98027.81
2022-10-11T12:48:41.075Z,98028.31
2022-10-11T12:51:28.572Z,98023.78
2022-10-11T12:54:25.422Z,98019.53
2022-10-11T12:57:11.040Z,98010.59
2022-10-11T12:59:42.753Z,98014.97
2022-10-11T13:02:45.160Z,98005.38
2022-10-11T13:05:23.501Z,98015.53
2022-10-11T13:07:56.307Z,98007.97
2022-10-11T13:10:30.536Z,98011.84
2022-10-11T13:13:00.587Z,98017.47
2022-10-11T13:15:29.974Z,98014.72
2022-10-11T13:20:42.556Z,98009.97
2022-10-11T13:23:26.634Z,98013.09
2022-10-11T13:25:56.893Z,98013.63
2022-10-11T13:28:23.939Z,98003.25
2022-10-11T13:30:53.361Z,98002.38
2022-10-11T13:33:25.062Z,98006.78
2022-10-11T13:35:52.826Z,98005.03
2022-10-11T13:38:24.209Z,98005.16
2022-10-11T13:40:51.381Z,98002.53
2022-10-11T13:43:26.609Z,97999.34
2022-10-11T13:45:57.261Z,97998.19
2022-10-11T13:48:28.138Z,97992.50
2022-10-11T13:51:06.685Z,98002.13
2022-10-11T13:53:33.331Z,97996.63
2022-10-11T13:56:00.917Z,97993.22
2022-10-11T13:58:30.058Z,97994.59
2022-10-11T14:00:58.374Z,97998.22
2022-10-11T14:03:36.144Z,98002.13
2022-10-11T14:06:03.231Z,97996.84
2022-10-11T14:08:30.023Z,97997.47
2022-10-11T14:10:59.387Z,98000.19
2022-10-11T14:13:41.434Z,98003.59
2022-10-11T14:16:08.670Z,97997.28
2022-10-11T14:18:46.359Z,98002.84
2022-10-11T14:21:33.864Z,97996.41
2022-10-11T14:24:02.251Z,98001.56
2022-10-11T14:26:31.955Z,98003.50
2022-10-11T14:29:00.028Z,98004.69
2022-10-11T14:31:27.034Z,98005.19
2022-10-11T14:33:53.848Z,98010.59
2022-10-11T14:36:22.737Z,98000.91
2022-10-11T14:38:50.404Z,98003.94
2022-10-11T14:41:17.170Z,98004.50
2022-10-11T14:43:43.821Z,98004.59
2022-10-11T14:46:21.853Z,98002.63
2022-10-11T14:48:56.694Z,98009.41
2022-10-11T14:51:25.317Z,98005.41
2022-10-11T14:53:52.215Z,98011.22
2022-10-11T14:56:21.457Z,98014.22
2022-10-11T14:58:48.489Z,98016.03
2022-10-11T15:01:15.635Z,98019.06
2022-10-11T15:03:42.731Z,98025.69
2022-10-11T15:06:19.615Z,98021.50
2022-10-11T15:08:46.390Z,98026.06
2022-10-11T15:11:20.309Z,98019.28
2022-10-11T15:13:49.224Z,98033.03
2022-10-11T15:16:17.023Z,98035.97
2022-10-11T15:18:44.669Z,98039.31
2022-10-11T15:21:14.687Z,98042.41
2022-10-11T15:23:41.642Z,98038.06
2022-10-11T15:26:20.135Z,98041.47
2022-10-11T15:28:46.995Z,98033.50
2022-10-11T15:31:13.706Z,98037.72
2022-10-11T15:33:40.429Z,98036.44
2022-10-11T15:36:11.899Z,98036.00
2022-10-11T15:38:38.498Z,98037.81
2022-10-11T15:41:05.131Z,98046.03
2022-10-11T15:43:31.605Z,98049.72
2022-10-11T15:45:58.295Z,98045.47
2022-10-11T15:48:26.556Z,98047.97
2022-10-11T15:50:53.781Z,98050.81
2022-10-11T15:53:22.113Z,98049.25
2022-10-11T15:55:50.214Z,98056.88
2022-10-11T15:58:18.471Z,98060.53
2022-10-11T16:00:46.449Z,98062.13
2022-10-11T16:03:13.866Z,98065.59
2022-10-11T16:05:40.733Z,98060.16
2022-10-11T16:08:07.807Z,98060.88
2022-10-11T16:10:34.629Z,98064.69
2022-10-11T16:13:02.036Z,98065.75
2022-10-11T16:15:29.100Z,98066.59
2022-10-11T16:17:55.590Z,98067.75
2022-10-11T16:20:24.591Z,98071.84
2022-10-11T16:22:52.424Z,98076.41
2022-10-11T16:25:22.809Z,98074.19
2022-10-11T16:27:52.614Z,98080.66
2022-10-11T16:30:19.878Z,98084.44
2022-10-11T16:32:46.471Z,98088.28
2022-10-11T16:35:14.038Z,98087.94
2022-10-11T16:37:40.552Z,98094.53
2022-10-11T16:40:07.561Z,98094.31
2022-10-11T16:42:37.021Z,98096.56
2022-10-11T16:45:03.864Z,98083.50
2022-10-11T16:47:33.065Z,98097.66
2022-10-11T16:50:00.679Z,98091.56
2022-10-11T16:52:27.207Z,98097.97
2022-10-11T16:54:56.618Z,98100.91
2022-10-11T16:57:23.302Z,98091.41
2022-10-11T16:59:49.972Z,98094.91
2022-10-11T17:02:21.332Z,98099.22
2022-10-11T17:04:51.762Z,98097.31
2022-10-11T17:07:18.973Z,98102.72
2022-10-11T17:09:46.265Z,98099.34
2022-10-11T17:12:14.730Z,98105.16
2022-10-11T17:14:44.894Z,98105.22
2022-10-11T17:17:11.600Z,98105.88
2022-10-11T17:19:44.840Z,98099.88
2022-10-11T17:22:21.469Z,98099.69
2022-10-11T17:24:50.901Z,98104.13
2022-10-11T17:27:17.438Z,98103.44
2022-10-11T17:29:48.366Z,98102.72
2022-10-11T17:32:14.868Z,98108.97
2022-10-11T17:34:41.354Z,98107.59
2022-10-11T17:37:10.283Z,98105.56
2022-10-11T17:39:36.908Z,98102.91
2022-10-11T17:42:11.047Z,98110.78
2022-10-11T17:44:40.899Z,98112.00
2022-10-11T17:47:07.566Z,98106.16
2022-10-11T17:49:34.107Z,98115.03
2022-10-11T17:52:08.604Z,98125.56
2022-10-11T17:54:48.759Z,98106.94
2022-10-11T17:57:17.827Z,98116.69
2022-10-11T17:59:46.861Z,98112.38
2022-10-11T18:02:17.194Z,98116.84
2022-10-11T18:04:46.243Z,98109.03
2022-10-11T18:07:17.834Z,98116.97
2022-10-11T18:09:47.456Z,98120.50
2022-10-11T18:12:14.259Z,98112.53
2022-10-11T18:14:43.952Z,98119.53
2022-10-11T18:17:19.721Z,98110.03
2022-10-11T18:19:48.606Z,98123.28
2022-10-11T18:22:15.728Z,98116.31
2022-10-11T18:24:45.463Z,98117.69
2022-10-11T18:27:16.957Z,98118.75
2022-10-11T18:29:43.903Z,98112.59
2022-10-11T18:32:10.476Z,98118.72
2022-10-11T18:34:53.376Z,98114.88
2022-10-11T18:37:20.115Z,98113.41
2022-10-11T18:39:48.185Z,98119.56
2022-10-11T18:42:15.156Z,98118.03
2022-10-11T18:44:41.731Z,98120.34
2022-10-11T18:47:08.355Z,98125.94
2022-10-11T18:49:37.259Z,98120.13
2022-10-11T18:52:03.859Z,98121.28
2022-10-11T18:54:30.852Z,98118.19
2022-10-11T18:57:00.895Z,98121.59
2022-10-11T18:59:27.559Z,98120.56
2022-10-11T19:01:54.221Z,98121.47
2022-10-11T19:04:21.261Z,98122.47
2022-10-11T19:06:48.864Z,98127.75
2022-10-11T19:09:17.949Z,98123.53
2022-10-11T19:11:44.640Z,98139.41
2022-10-11T19:14:14.739Z,98131.66
2022-10-11T19:16:45.541Z,98131.38
2022-10-11T19:19:13.069Z,98120.66
2022-10-11T19:21:43.987Z,98132.06
2022-10-11T19:24:10.700Z,98139.19
2022-10-11T19:26:46.057Z,98134.03
2022-10-11T19:29:22.034Z,98137.03
2022-10-11T19:31:50.217Z,98136.22
2022-10-11T19:34:17.393Z,98138.56
2022-10-11T19:36:45.199Z,98143.06
2022-10-11T19:39:15.520Z,98142.34
2022-10-11T19:41:45.922Z,98146.69
2022-10-11T19:44:13.325Z,98146.91
2022-10-11T19:47:02.687Z,98155.28
2022-10-11T19:49:29.576Z,98156.34
2022-10-11T19:51:59.283Z,98152.94
2022-10-11T19:54:25.793Z,98155.28
2022-10-11T19:56:52.619Z,98152.63
2022-10-11T19:59:22.741Z,98152.75
2022-10-11T20:01:52.686Z,98157.81
2022-10-11T20:07:07.108Z,98157.28
2022-10-11T20:09:33.718Z,98163.31
2022-10-11T20:12:00.258Z,98166.94
2022-10-11T20:14:37.025Z,98159.13
2022-10-11T20:17:03.744Z,98168.06
2022-10-11T20:19:31.270Z,98169.66
2022-10-11T20:21:58.548Z,98166.06
2022-10-11T20:24:27.616Z,98170.75
2022-10-11T20:29:45.371Z,98160.91
2022-10-11T20:32:11.929Z,98169.81
2022-10-11T20:34:40.945Z,98170.63
2022-10-11T20:37:07.472Z,98174.25
2022-10-11T20:39:36.412Z,98166.84
2022-10-11T20:42:02.903Z,98167.28
2022-10-11T20:44:34.085Z,98169.97
2022-10-11T20:47:04.048Z,98162.75
2022-10-11T20:49:33.195Z,98176.19
2022-10-11T20:51:59.804Z,98167.00
2022-10-11T20:54:28.890Z,98165.38
2022-10-11T20:56:55.630Z,98173.22
2022-10-11T20:59:22.501Z,98162.75
2022-10-11T21:01:49.027Z,98163.75
2022-10-11T21:04:22.716Z,98170.69
2022-10-11T21:06:49.415Z,98163.75
2022-10-11T21:09:16.929Z,98173.78
2022-10-11T21:11:43.833Z,98173.16
2022-10-11T21:14:10.484Z,98173.38
2022-10-11T21:16:37.134Z,98174.31
2022-10-11T21:19:05.989Z,98178.03
2022-10-11T21:21:32.680Z,98175.66
2022-10-11T21:24:01.383Z,98177.50
2022-10-11T21:26:28.965Z,98176.56
2022-10-11T21:28:55.717Z,98173.81
2022-10-11T21:31:23.699Z,98178.47
2022-10-11T21:33:50.695Z,98182.06
2022-10-11T21:36:23.288Z,98178.69
2022-10-11T21:38:51.202Z,98174.16
2022-10-11T21:41:20.734Z,98177.28
2022-10-11T21:43:47.582Z,98176.97
2022-10-11T21:46:15.945Z,98182.38
2022-10-11T21:48:42.556Z,98177.38
2022-10-11T21:53:47.437Z,98176.44
2022-10-11T21:56:20.134Z,98175.72
2022-10-11T21:58:48.019Z,98179.09
2022-10-11T22:01:15.337Z,98179.94
2022-10-11T22:04:03.010Z,98182.72
2022-10-11T22:06:38.130Z,98193.47
2022-10-11T22:09:05.595Z,98181.06
2022-10-11T22:11:32.330Z,98189.00
2022-10-11T22:13:59.040Z,98185.72
2022-10-11T22:16:25.643Z,98185.72
2022-10-11T22:18:53.814Z,98193.03
2022-10-11T22:21:23.025Z,98184.22
2022-10-11T22:23:51.735Z,98182.66
2022-10-11T22:26:21.646Z,98190.53
2022-10-11T22:28:48.805Z,98181.84
2022-10-11T22:31:17.858Z,98189.06
2022-10-11T22:36:13.210Z,98175.94
2022-10-11T22:38:42.104Z,98181.41
2022-10-11T22:41:09.477Z,98183.06
2022-10-11T22:43:36.208Z,98180.53
2022-10-11T22:46:03.211Z,98182.72
2022-10-11T22:48:29.923Z,98178.34
2022-10-11T22:50:56.625Z,98185.47
2022-10-11T22:53:23.286Z,98184.72
2022-10-11T22:55:50.190Z,98186.63
2022-10-11T22:58:16.923Z,98181.41
2022-10-11T23:00:43.802Z,98182.16
2022-10-11T23:03:14.615Z,98180.53
2022-10-11T23:05:41.541Z,98185.75
2022-10-11T23:08:09.641Z,98187.47
2022-10-11T23:10:40.150Z,98191.97
2022-10-11T23:13:07.187Z,98195.84
2022-10-11T23:15:33.833Z,98198.41
2022-10-11T23:18:00.487Z,98200.84
2022-10-11T23:20:27.298Z,98191.34
2022-10-11T23:22:53.869Z,98201.03
2022-10-11T23:25:20.489Z,98195.88
2022-10-11T23:27:47.097Z,98198.16
2022-10-11T23:30:13.922Z,98194.84
2022-10-11T23:32:40.680Z,98199.19
2022-10-11T23:35:07.781Z,98197.34
2022-10-11T23:37:34.531Z,98193.22
2022-10-11T23:40:01.287Z,98194.06
2022-10-11T23:42:27.929Z,98190.47
2022-10-11T23:44:54.516Z,98195.69
2022-10-11T23:47:21.118Z,98198.31
2022-10-11T23:49:47.751Z,98196.88
2022-10-11T23:52:14.337Z,98202.31
2022-10-11T23:54:41.064Z,98205.91
2022-10-11T23:57:07.635Z,98200.53
2022-10-11T23:59:34.218Z,98203.25
